Time;durP1;ratioP1;P1;durP2;ratioP2;P2;SDS_P1;SDS_P2;PMS_P1;PMS_P2;Temp;Humidity;BMP_temperature;BMP_pressure;BME280_temperature;BME280_humidity;BME280_pressure;Samples;Min_cycle;Max_cycle;Signal;HPM_P1;HPM_P2
2023/10/28 09:26:04;;;;;;;3.72;1.70;;;34.40;86.30;;;;;;5056526;28;20977;-57
2023/10/28 09:28:31;;;;;;;6.97;2.03;;;;;;;;;;5060832;28;20352;-55
2023/10/28 09:30:59;;;;;;;7.65;4.55;;;;;;;;;;5062674;28;20527;-53
2023/10/28 09:33:27;;;;;;;4.95;2.25;;;30.60;89.00;;;;;;5064496;28;20032;-54
2023/10/28 09:35:56;;;;;;;7.18;4.65;;;;;;;;;;5061309;28;20052;-55
2023/10/28 09:38:23;;;;;;;7.68;3.00;;;;;;;;;;5059430;28;20087;-54
2023/10/28 09:40:49;;;;;;;5.57;2.30;;;;;;;;;;5053055;28;20564;-52
2023/10/28 09:43:16;;;;;;;6.28;2.35;;;;;;;;;;5059424;28;20029;-55
2023/10/28 09:45:46;;;;;;;5.80;2.60;;;;;;;;;;5055665;28;20104;-54
2023/10/28 09:48:15;;;;;;;5.05;2.40;;;;;;;;;;5055392;28;20036;-56
2023/10/28 09:50:48;;;;;;;4.53;2.25;;;25.80;96.00;;;;;;5065164;28;20047;-56
2023/10/28 09:53:16;;;;;;;6.28;3.08;;;;;;;;;;5058401;28;20108;-57
2023/10/28 09:55:43;;;;;;;10.05;3.03;;;;;;;;;;5059195;28;20464;-54
2023/10/28 09:58:09;;;;;;;11.43;3.05;;;;;;;;;;5059383;28;20020;-56
2023/10/28 10:00:38;;;;;;;6.03;2.50;;;25.60;94.90;;;;;;5061798;28;20020;-57
2023/10/28 10:03:41;;;;;;;4.75;2.35;;;25.50;95.30;;;;;;5062077;28;20033;-54
2023/10/28 10:06:11;;;;;;;9.18;2.60;;;25.80;96.30;;;;;;5053719;28;20036;-56
2023/10/28 10:08:50;;;;;;;6.20;2.63;;;25.70;95.70;;;;;;5063125;28;20696;-55
2023/10/28 10:11:25;;;;;;;4.55;2.15;;;25.50;96.20;;;;;;5063168;28;20112;-55
2023/10/28 10:13:51;;;;;;;4.20;2.22;;;25.20;97.90;;;;;;5061656;28;20025;-54
2023/10/28 10:16:23;;;;;;;5.55;2.38;;;25.20;95.70;;;;;;5060435;28;20028;-57
2023/10/28 10:18:53;;;;;;;4.50;2.30;;;25.10;95.70;;;;;;5072454;28;20550;-55
2023/10/28 10:21:19;;;;;;;6.85;2.65;;;25.00;96.00;;;;;;5052463;28;20056;-58
2023/10/28 10:23:50;;;;;;;5.15;2.10;;;25.00;96.40;;;;;;5073475;28;20061;-55
2023/10/28 10:26:23;;;;;;;7.97;2.70;;;25.10;96.40;;;;;;5055417;28;20041;-57
2023/10/28 10:28:52;;;;;;;5.72;2.78;;;25.20;95.90;;;;;;5061708;28;20031;-53
2023/10/28 10:31:21;;;;;;;4.40;2.42;;;25.30;96.20;;;;;;5048551;28;20029;-54
2023/10/28 10:34:47;;;;;;;6.00;4.10;;;25.20;95.80;;;;;;5061755;28;20017;-58
2023/10/28 10:37:21;;;;;;;5.35;2.28;;;;;;;;;;5046023;28;20056;-54
2023/10/28 10:39:47;;;;;;;6.43;3.30;;;23.60;96.90;;;;;;5045149;28;20444;-56
2023/10/28 10:42:13;;;;;;;6.80;2.53;;;;;;;;;;5043770;28;20157;-55
2023/10/28 10:44:40;;;;;;;7.45;3.30;;;23.30;99.90;;;;;;5048603;28;20028;-53
2023/10/28 10:47:08;;;;;;;5.82;2.90;;;23.20;99.40;;;;;;5038142;28;20029;-56
2023/10/28 10:49:36;;;;;;;5.18;2.50;;;23.50;99.70;;;;;;5040286;28;20032;-55
2023/10/28 10:52:03;;;;;;;8.75;2.90;;;23.70;99.80;;;;;;5043793;28;20483;-56
2023/10/28 10:54:38;;;;;;;6.10;3.00;;;24.00;99.90;;;;;;5042700;28;20916;-55
2023/10/28 10:57:06;;;;;;;8.32;2.40;;;23.80;99.30;;;;;;5042442;28;20040;-55
2023/10/28 10:59:38;;;;;;;11.32;3.00;;;23.90;99.60;;;;;;5052638;28;20029;-55
2023/10/28 11:02:04;;;;;;;7.43;3.42;;;;;;;;;;5044544;28;20056;-55
2023/10/28 11:04:31;;;;;;;6.63;3.20;;;;;;;;;;5043265;28;20048;-57
2023/10/28 11:06:58;;;;;;;6.93;3.50;;;;;;;;;;5041175;28;20060;-56
2023/10/28 11:09:24;;;;;;;9.70;2.80;;;;;;;;;;5051733;28;20052;-57
2023/10/28 11:11:50;;;;;;;6.60;2.38;;;;;;;;;;5044972;28;20025;-56
2023/10/28 11:14:16;;;;;;;5.47;2.45;;;;;;;;;;5047027;28;20483;-53
2023/10/28 11:16:43;;;;;;;7.45;3.15;;;;;;;;;;5046586;28;20032;-54
2023/10/28 11:19:10;;;;;;;6.28;2.60;;;;;;;;;;5038118;28;20025;-54
2023/10/28 11:21:36;;;;;;;5.93;2.50;;;;;;;;;;5048129;28;20033;-57
2023/10/28 11:24:05;;;;;;;7.43;3.30;;;;;;;;;;5041956;28;20057;-57
2023/10/28 11:26:32;;;;;;;6.97;2.97;;;23.30;97.20;;;;;;5039209;28;20498;-55
2023/10/28 11:29:02;;;;;;;5.75;1.95;;;;;;;;;;5042469;28;20160;-59
2023/10/28 11:31:29;;;;;;;6.97;2.75;;;22.60;98.00;;;;;;5044625;28;20029;-57
2023/10/28 11:34:00;;;;;;;6.68;2.47;;;22.50;98.40;;;;;;5043518;28;20060;-57
2023/10/28 11:36:27;;;;;;;6.53;3.53;;;22.70;99.20;;;;;;5048134;28;20044;-56
2023/10/28 11:38:56;;;;;;;6.65;3.72;;;22.50;99.10;;;;;;5049174;28;20493;-56
2023/10/28 11:41:22;;;;;;;5.55;3.35;;;22.70;99.00;;;;;;5044480;28;20030;-56
2023/10/28 11:43:52;;;;;;;4.00;2.17;;;22.80;98.90;;;;;;5042938;28;20025;-57
2023/10/28 11:46:19;;;;;;;4.93;1.85;;;22.60;99.30;;;;;;5048154;28;20017;-58
2023/10/28 11:48:46;;;;;;;6.43;2.60;;;22.40;99.80;;;;;;5036511;28;20034;-58
2023/10/28 11:51:13;;;;;;;4.63;2.80;;;22.60;99.90;;;;;;5057953;28;20520;-54
2023/10/28 11:53:47;;;;;;;7.25;2.67;;;23.00;99.90;;;;;;5041166;28;20052;-57
2023/10/28 11:56:15;;;;;;;6.78;2.03;;;23.10;98.90;;;;;;5047920;28;20040;-57
2023/10/28 11:58:43;;;;;;;4.80;1.77;;;22.90;98.50;;;;;;5046856;28;20133;-54
2023/10/28 12:01:09;;;;;;;3.50;1.80;;;22.90;98.70;;;;;;5048897;28;20044;-53
2023/10/28 12:03:34;;;;;;;5.03;1.77;;;23.10;98.50;;;;;;5037402;28;20431;-53
2023/10/28 12:06:02;;;;;;;4.93;2.05;;;23.80;98.10;;;;;;5041745;28;20436;-56
2023/10/28 12:08:27;;;;;;;5.75;2.50;;;24.10;97.00;;;;;;5046455;28;20033;-55
2023/10/28 12:10:54;;;;;;;6.15;1.90;;;24.80;96.70;;;;;;5040282;28;20031;-54
2023/10/28 12:13:20;;;;;;;3.92;2.10;;;;;;;;;;5041729;28;20120;-54
2023/10/28 12:15:46;;;;;;;5.65;2.10;;;25.90;94.80;;;;;;5041368;28;20108;-57
2023/10/28 12:18:12;;;;;;;2.35;1.30;;;25.50;94.70;;;;;;5060259;28;20124;-57
2023/10/28 12:20:38;;;;;;;1.63;1.08;;;25.50;93.80;;;;;;5048242;28;20029;-54
2023/10/28 12:23:04;;;;;;;2.35;1.40;;;24.90;93.80;;;;;;5043333;28;20036;-53
2023/10/28 12:25:30;;;;;;;4.00;1.38;;;25.00;94.20;;;;;;5043786;28;20048;-55
2023/10/28 12:27:56;;;;;;;4.75;1.60;;;24.80;94.30;;;;;;5037435;28;20381;-57
2023/10/28 12:30:21;;;;;;;4.22;1.33;;;25.60;94.70;;;;;;5043524;28;20021;-53
2023/10/28 12:32:48;;;;;;;4.22;1.65;;;;;;;;;;5046076;28;20021;-53
2023/10/28 12:35:14;;;;;;;9.68;2.22;;;26.80;93.40;;;;;;5064941;28;20082;-57
2023/10/28 12:37:43;;;;;;;8.38;1.83;;;;;;;;;;5060609;28;20037;-53
2023/10/28 12:40:12;;;;;;;4.82;1.77;;;26.60;92.30;;;;;;5049375;28;20480;-54
2023/10/28 12:42:38;;;;;;;4.03;1.60;;;26.50;92.40;;;;;;5081008;28;20545;-53
2023/10/28 12:45:06;;;;;;;6.53;1.27;;;26.30;91.90;;;;;;5060122;28;20041;-55
2023/10/28 12:47:32;;;;;;;2.90;1.60;;;26.60;92.40;;;;;;5045468;28;20040;-56
2023/10/28 12:49:58;;;;;;;4.65;1.40;;;27.00;92.40;;;;;;5038371;28;20114;-55
2023/10/28 12:52:23;;;;;;;4.38;1.48;;;27.00;91.20;;;;;;5058934;28;20129;-53
2023/10/28 12:54:50;;;;;;;9.30;2.10;;;27.00;91.00;;;;;;5064795;28;20465;-53
2023/10/28 12:57:16;;;;;;;4.90;2.00;;;26.50;90.40;;;;;;5061488;28;20118;-56
2023/10/28 12:59:46;;;;;;;3.30;1.38;;;26.20;91.00;;;;;;5060138;28;20025;-55
2023/10/28 13:02:12;;;;;;;4.00;1.67;;;25.90;90.80;;;;;;5053573;28;20033;-57
2023/10/28 13:04:38;;;;;;;4.57;1.65;;;25.80;91.20;;;;;;5062948;28;20464;-56
2023/10/28 13:07:05;;;;;;;4.72;2.03;;;25.80;91.60;;;;;;5048408;28;20161;-54
2023/10/28 13:09:31;;;;;;;6.10;2.30;;;25.60;91.60;;;;;;5045672;28;20124;-54
2023/10/28 13:11:59;;;;;;;6.50;1.70;;;;;;;;;;5048126;28;20159;-56
2023/10/28 13:14:27;;;;;;;5.95;1.52;;;25.90;92.00;;;;;;5036242;28;20032;-54
2023/10/28 13:16:53;;;;;;;5.28;2.00;;;;;;;;;;5041666;28;20037;-54
2023/10/28 13:19:22;;;;;;;4.85;1.63;;;;;;;;;;5049524;28;20027;-55
2023/10/28 13:21:49;;;;;;;3.95;1.20;;;;;;;;;;5045884;28;20107;-56
2023/10/28 13:24:15;;;;;;;4.82;1.58;;;;;;;;;;5042278;28;20106;-54
2023/10/28 13:26:41;;;;;;;5.72;1.60;;;27.70;95.70;;;;;;5043203;28;20438;-56
2023/10/28 13:29:09;;;;;;;6.68;1.50;;;27.80;89.90;;;;;;5030857;28;20036;-55
2023/10/28 13:31:35;;;;;;;4.20;1.58;;;27.90;90.50;;;;;;5037823;28;20025;-53
2023/10/28 13:34:02;;;;;;;3.60;1.13;;;27.60;90.00;;;;;;5035275;28;20051;-54
2023/10/28 13:36:27;;;;;;;5.63;2.20;;;27.50;89.60;;;;;;5040697;28;20041;-56
2023/10/28 13:38:53;;;;;;;5.13;1.50;;;27.40;89.80;;;;;;5037320;28;20114;-56
2023/10/28 13:41:19;;;;;;;6.03;1.50;;;27.20;88.90;;;;;;5033486;28;20021;-53
2023/10/28 13:43:45;;;;;;;4.45;1.63;;;27.30;89.90;;;;;;5041993;28;20064;-55
2023/10/28 13:46:11;;;;;;;3.67;1.45;;;27.60;90.00;;;;;;5040771;28;20508;-56
2023/10/28 13:48:37;;;;;;;3.03;1.10;;;27.30;88.80;;;;;;5035644;28;20033;-59
2023/10/28 13:51:02;;;;;;;6.95;1.83;;;27.10;89.10;;;;;;5022681;28;20041;-54
2023/10/28 13:53:28;;;;;;;5.78;1.63;;;26.80;89.70;;;;;;5013918;28;20029;-53
2023/10/28 13:56:00;;;;;;;4.90;1.23;;;26.50;89.30;;;;;;5024357;28;20624;-55
2023/10/28 13:58:28;;;;;;;5.10;1.38;;;26.20;90.10;;;;;;5006016;28;20087;-52
2023/10/28 14:00:54;;;;;;;4.57;1.10;;;25.90;90.40;;;;;;5024210;28;20037;-54
2023/10/28 14:03:20;;;;;;;3.85;1.10;;;25.60;90.80;;;;;;5018263;28;20037;-54
2023/10/28 14:05:47;;;;;;;3.83;1.48;;;25.40;90.70;;;;;;5041556;28;20045;-53
2023/10/28 14:08:15;;;;;;;7.05;1.95;;;25.30;91.30;;;;;;5012813;28;20083;-52
2023/10/28 14:10:46;;;;;;;4.53;1.40;;;25.10;91.40;;;;;;5034969;28;20054;-52
2023/10/28 14:13:13;;;;;;;6.10;1.70;;;24.90;91.60;;;;;;5038959;28;20542;-54
2023/10/28 14:15:42;;;;;;;5.20;1.75;;;24.80;91.90;;;;;;5043771;28;20025;-52
2023/10/28 14:18:09;;;;;;;3.85;1.25;;;;;;;;;;5046948;28;20445;-53
2023/10/28 14:20:35;;;;;;;8.75;1.60;;;24.20;91.80;;;;;;5046181;28;20040;-55
2023/10/28 14:23:01;;;;;;;3.15;1.30;;;24.80;92.60;;;;;;5048022;28;20040;-52
2023/10/28 14:25:27;;;;;;;5.63;1.48;;;25.00;92.50;;;;;;5049238;28;20045;-55
2023/10/28 14:27:53;;;;;;;5.97;1.73;;;25.00;92.50;;;;;;5044313;28;20049;-53
2023/10/28 14:30:39;;;;;;;6.82;2.00;;;25.00;92.70;;;;;;5041852;28;20029;-54
2023/10/28 14:33:05;;;;;;;7.07;2.20;;;25.00;93.00;;;;;;4992280;28;20120;-52
2023/10/28 14:35:31;;;;;;;6.63;2.67;;;24.80;92.90;;;;;;4992503;28;20116;-52
2023/10/28 14:37:57;;;;;;;6.30;2.35;;;;;;;;;;4992456;28;20038;-54
2023/10/28 14:40:23;;;;;;;6.57;2.20;;;24.60;95.00;;;;;;4992539;28;20084;-54
2023/10/28 14:43:09;;;;;;;10.45;2.42;;;;;;;;;;4972241;28;20049;-52
2023/10/28 14:45:35;;;;;;;6.35;1.70;;;24.30;93.20;;;;;;4972298;28;20051;-54
2023/10/28 14:48:02;;;;;;;5.97;2.17;;;;;;;;;;4973084;28;20098;-52
2023/10/28 14:50:28;;;;;;;4.28;1.50;;;;;;;;;;4973012;28;20031;-52
2023/10/28 14:52:54;;;;;;;8.38;2.60;;;24.00;96.40;;;;;;4972513;28;20041;-54
2023/10/28 14:55:19;;;;;;;7.63;2.10;;;23.70;94.00;;;;;;4971397;28;20034;-53
2023/10/28 14:57:45;;;;;;;12.05;2.63;;;;;;;;;;4972464;28;20070;-52
2023/10/28 15:00:31;;;;;;;10.93;2.47;;;23.60;99.90;;;;;;4991971;28;20030;-53
2023/10/28 15:02:57;;;;;;;11.10;2.95;;;;;;;;;;5012391;28;20088;-53
2023/10/28 15:05:24;;;;;;;9.30;2.80;;;23.00;98.20;;;;;;5053354;28;20051;-52
2023/10/28 15:07:51;;;;;;;19.10;2.92;;;;;;;;;;5070802;28;20177;-53
2023/10/28 15:10:16;;;;;;;11.30;2.70;;;22.90;99.90;;;;;;5069972;28;20140;-53
2023/10/28 15:12:42;;;;;;;8.50;2.75;;;22.90;95.80;;;;;;5053396;28;20513;-53
2023/10/28 15:15:09;;;;;;;14.00;3.80;;;;;;;;;;5080279;28;20111;-53
2023/10/28 15:17:35;;;;;;;9.95;2.63;;;;;;;;;;5082220;28;20759;-52
2023/10/28 15:20:21;;;;;;;8.48;1.95;;;;;;;;;;5061707;28;20063;-53
2023/10/28 15:22:47;;;;;;;14.90;3.88;;;22.60;98.20;;;;;;5065103;28;20033;-53
2023/10/28 15:25:13;;;;;;;14.63;4.20;;;22.50;98.10;;;;;;5045867;28;20494;-54
2023/10/28 15:27:38;;;;;;;14.90;4.07;;;22.40;98.30;;;;;;5062528;28;20430;-53
2023/10/28 15:30:10;;;;;;;13.30;3.70;;;;;;;;;;5062558;28;20060;-56
2023/10/28 15:32:37;;;;;;;21.85;6.57;;;23.00;99.90;;;;;;5058243;28;20051;-53
2023/10/28 15:35:04;;;;;;;11.55;4.68;;;22.20;97.50;;;;;;5061963;28;20036;-54
2023/10/28 15:37:30;;;;;;;15.60;5.78;;;22.10;97.70;;;;;;5069954;28;20484;-53
2023/10/28 15:39:56;;;;;;;11.27;4.88;;;;;;;;;;5049218;28;20116;-52
2023/10/28 15:42:22;;;;;;;12.27;5.95;;;21.80;97.20;;;;;;5026451;28;20017;-52
2023/10/28 15:44:48;;;;;;;17.27;12.27;;;21.80;97.30;;;;;;5024934;28;20648;-53
2023/10/28 15:47:14;;;;;;;13.68;9.93;;;;;;;;;;4990866;28;20397;-52
2023/10/28 15:49:40;;;;;;;13.48;6.18;;;21.20;99.40;;;;;;5029142;28;20079;-52
2023/10/28 15:52:06;;;;;;;16.83;7.78;;;;;;;;;;5020704;28;20068;-52
2023/10/28 15:54:32;;;;;;;17.15;10.10;;;20.80;99.90;;;;;;5015916;28;20136;-53
2023/10/28 15:56:58;;;;;;;22.25;10.57;;;20.50;99.90;;;;;;5001250;28;20136;-52
2023/10/28 15:59:24;;;;;;;17.20;8.75;;;20.40;99.90;;;;;;5032244;28;20099;-52
2023/10/28 16:01:50;;;;;;;15.40;8.38;;;20.30;99.90;;;;;;5044123;28;20021;-52
2023/10/28 16:04:16;;;;;;;31.15;17.95;;;20.30;99.90;;;;;;5043503;28;20542;-52
2023/10/28 16:06:45;;;;;;;24.85;14.02;;;20.40;99.90;;;;;;5037484;28;20037;-53
2023/10/28 16:09:12;;;;;;;14.68;7.35;;;20.50;99.90;;;;;;5042931;28;20451;-52
2023/10/28 16:11:38;;;;;;;17.02;8.05;;;20.40;99.90;;;;;;5038633;28;20017;-52
2023/10/28 16:14:04;;;;;;;12.55;6.28;;;20.30;99.90;;;;;;5036506;28;20092;-52
2023/10/28 16:16:31;;;;;;;19.55;8.27;;;;;;;;;;5041533;28;20059;-52
2023/10/28 16:18:57;;;;;;;29.33;17.10;;;20.20;99.90;;;;;;5039507;28;20044;-52
2023/10/28 16:21:24;;;;;;;30.92;17.85;;;20.10;99.90;;;;;;5043324;28;20030;-52
2023/10/28 16:23:50;;;;;;;31.20;16.40;;;20.10;99.90;;;;;;5043221;28;20032;-52
2023/10/28 16:26:16;;;;;;;28.25;17.42;;;20.00;99.90;;;;;;5042045;28;20171;-52
2023/10/28 16:28:42;;;;;;;28.67;14.75;;;20.00;99.90;;;;;;5042766;28;20044;-52
2023/10/28 16:31:08;;;;;;;34.05;17.80;;;20.10;99.90;;;;;;5034559;28;20111;-52
2023/10/28 16:33:35;;;;;;;43.65;25.55;;;19.90;99.90;;;;;;5043461;28;20022;-51
2023/10/28 16:36:01;;;;;;;38.80;26.38;;;19.90;99.90;;;;;;5042933;28;20071;-51
2023/10/28 16:38:27;;;;;;;63.10;41.40;;;;;;;;;;5037691;28;20048;-51
2023/10/28 16:40:56;;;;;;;55.30;37.53;;;;;;;;;;5059834;28;20033;-53
2023/10/28 16:43:24;;;;;;;58.55;38.20;;;;;;;;;;5039532;28;20098;-52
2023/10/28 16:45:56;;;;;;;83.07;48.17;;;;;;;;;;5042857;28;20033;-52
2023/10/28 16:48:22;;;;;;;92.47;45.38;;;20.10;99.90;;;;;;5038400;28;20167;-52
2023/10/28 16:50:48;;;;;;;59.72;32.92;;;20.00;99.90;;;;;;5043915;28;20116;-52
2023/10/28 16:53:14;;;;;;;72.75;38.55;;;20.00;99.90;;;;;;5034853;28;20119;-52
2023/10/28 16:55:39;;;;;;;61.60;32.20;;;20.00;99.90;;;;;;5037243;28;20132;-51
2023/10/28 16:58:05;;;;;;;61.10;33.13;;;20.00;99.90;;;;;;5044147;28;20025;-51
2023/10/28 17:00:31;;;;;;;92.85;53.92;;;20.00;99.90;;;;;;5044601;28;20027;-51
2023/10/28 17:02:56;;;;;;;62.58;38.47;;;19.70;99.90;;;;;;5038808;28;20037;-53
2023/10/28 17:05:22;;;;;;;53.22;30.40;;;19.60;99.90;;;;;;5037613;28;20034;-52
2023/10/28 17:07:48;;;;;;;25.25;16.58;;;19.40;99.90;;;;;;5044462;28;20053;-52
2023/10/28 17:10:14;;;;;;;33.42;20.30;;;19.30;99.90;;;;;;5050963;28;20083;-52
2023/10/28 17:12:40;;;;;;;35.40;22.80;;;19.20;99.90;;;;;;5051102;28;20032;-52
2023/10/28 17:15:06;;;;;;;36.28;20.50;;;19.10;99.90;;;;;;5050881;28;20039;-51
2023/10/28 17:17:32;;;;;;;28.80;17.38;;;18.90;99.90;;;;;;5051126;28;20017;-53
2023/10/28 17:19:58;;;;;;;34.83;17.17;;;;;;;;;;5051102;28;20028;-52
2023/10/28 17:22:24;;;;;;;29.85;15.52;;;18.60;99.90;;;;;;5048583;28;20556;-52
2023/10/28 17:24:51;;;;;;;25.80;15.23;;;18.70;99.90;;;;;;5050747;28;20053;-51
2023/10/28 17:27:23;;;;;;;28.30;14.20;;;18.70;99.90;;;;;;5050767;28;20490;-51
2023/10/28 17:29:49;;;;;;;25.90;14.38;;;18.70;99.90;;;;;;5050786;28;20025;-53
2023/10/28 17:32:15;;;;;;;22.65;14.30;;;18.70;99.90;;;;;;5050769;28;20025;-53
2023/10/28 17:34:41;;;;;;;25.70;13.95;;;18.70;99.90;;;;;;5048321;28;20082;-52
2023/10/28 17:37:08;;;;;;;34.00;16.98;;;18.60;99.90;;;;;;5048230;28;20112;-51
2023/10/28 17:39:33;;;;;;;30.42;17.08;;;18.60;99.90;;;;;;5048275;28;20069;-53
2023/10/28 17:41:59;;;;;;;39.88;21.80;;;18.50;99.90;;;;;;5048177;28;20471;-53
2023/10/28 17:44:25;;;;;;;36.33;19.02;;;18.40;99.90;;;;;;5047941;28;20075;-52
2023/10/28 17:46:51;;;;;;;28.58;16.65;;;18.40;99.90;;;;;;5050504;28;20029;-52
2023/10/28 17:49:17;;;;;;;30.92;18.80;;;18.40;99.90;;;;;;5002239;28;20036;-52
2023/10/28 17:51:42;;;;;;;34.03;17.23;;;18.50;99.90;;;;;;5002273;28;20186;-52
2023/10/28 17:54:08;;;;;;;30.88;17.65;;;18.50;99.90;;;;;;5002073;28;20517;-52
2023/10/28 17:56:35;;;;;;;36.13;17.85;;;18.30;99.90;;;;;;5018231;28;20040;-53
2023/10/28 17:59:01;;;;;;;29.77;17.48;;;18.20;99.90;;;;;;5051946;28;20160;-51
2023/10/28 18:01:26;;;;;;;35.83;18.95;;;18.00;99.90;;;;;;5031788;28;20052;-52
2023/10/28 18:03:53;;;;;;;33.03;17.77;;;17.40;99.90;;;;;;5031945;28;20038;-53
2023/10/28 18:06:19;;;;;;;26.73;17.08;;;17.70;99.90;;;;;;5031704;28;20084;-52
2023/10/28 18:08:45;;;;;;;30.58;15.45;;;;;;;;;;5031769;28;20056;-52
2023/10/28 18:11:14;;;;;;;32.17;15.95;;;;;;;;;;5031808;28;20072;-53
2023/10/28 18:13:57;;;;;;;31.90;17.48;;;17.20;99.90;;;;;;5012051;28;20087;-51
2023/10/28 18:16:22;;;;;;;32.03;18.70;;;16.90;99.90;;;;;;5011882;28;20117;-52
2023/10/28 18:18:48;;;;;;;34.30;18.60;;;16.80;99.90;;;;;;5012016;28;20045;-51
2023/10/28 18:21:15;;;;;;;31.52;16.30;;;16.70;99.90;;;;;;5027974;28;20062;-52
2023/10/28 18:23:41;;;;;;;31.58;17.23;;;16.70;99.90;;;;;;5031312;28;20116;-51
2023/10/28 18:26:07;;;;;;;28.38;15.38;;;16.70;99.90;;;;;;5031386;28;20137;-51
2023/10/28 18:28:34;;;;;;;23.45;13.68;;;16.80;99.90;;;;;;5031435;28;20041;-51
2023/10/28 18:31:02;;;;;;;26.85;14.45;;;16.70;99.90;;;;;;5031485;28;20158;-52
2023/10/28 18:33:30;;;;;;;28.17;13.48;;;16.50;99.90;;;;;;5049402;28;20041;-51
2023/10/28 18:35:56;;;;;;;22.85;10.82;;;16.40;99.90;;;;;;5051180;28;20045;-52
2023/10/28 18:38:21;;;;;;;26.85;13.57;;;16.40;99.90;;;;;;5051342;28;20048;-53
2023/10/28 18:40:47;;;;;;;25.90;14.07;;;16.40;99.90;;;;;;5017545;28;20060;-52
2023/10/28 18:43:13;;;;;;;21.05;12.35;;;16.30;99.90;;;;;;5051226;28;20555;-52
2023/10/28 18:45:39;;;;;;;22.40;12.68;;;;;;;;;;5051584;28;20140;-52
2023/10/28 18:48:06;;;;;;;26.60;13.63;;;16.20;99.90;;;;;;5019091;28;20170;-51
2023/10/28 18:50:32;;;;;;;21.00;10.55;;;;;;;;;;5054754;28;20040;-51
2023/10/28 18:52:58;;;;;;;18.88;11.13;;;;;;;;;;5038519;28;20176;-51
2023/10/28 18:55:25;;;;;;;18.23;9.60;;;;;;;;;;5038151;28;20064;-51
2023/10/28 18:58:12;;;;;;;10.88;7.05;;;;;;;;;;5031476;28;20037;-52
2023/10/28 19:00:37;;;;;;;11.18;6.35;;;15.80;99.90;;;;;;5025931;28;20474;-52
2023/10/28 19:03:05;;;;;;;10.80;6.78;;;15.70;99.90;;;;;;5012177;28;20105;-51
2023/10/28 19:05:33;;;;;;;13.57;6.53;;;;;;;;;;5011992;28;20046;-51
2023/10/28 19:08:00;;;;;;;11.82;5.85;;;;;;;;;;5012067;28;20034;-52
2023/10/28 19:10:27;;;;;;;14.27;6.32;;;;;;;;;;5011916;28;20033;-52
2023/10/28 19:12:54;;;;;;;14.52;7.43;;;;;;;;;;4995661;28;20052;-52
2023/10/28 19:15:19;;;;;;;11.07;6.20;;;14.50;99.90;;;;;;5011835;28;20664;-51
2023/10/28 19:17:45;;;;;;;12.32;7.38;;;16.10;99.90;;;;;;5011959;28;20046;-52
2023/10/28 19:20:11;;;;;;;11.88;6.80;;;16.10;99.90;;;;;;5011949;28;20068;-51
2023/10/28 19:22:37;;;;;;;11.40;6.65;;;16.00;99.90;;;;;;5011672;28;20018;-51
2023/10/28 19:25:04;;;;;;;16.17;7.22;;;;;;;;;;5011491;28;20421;-51
2023/10/28 19:27:30;;;;;;;13.60;7.28;;;15.90;99.90;;;;;;5011703;28;20026;-51
2023/10/28 19:29:55;;;;;;;12.43;7.15;;;15.90;99.90;;;;;;5021698;28;20044;-52
2023/10/28 19:32:21;;;;;;;11.07;6.28;;;15.90;99.90;;;;;;5048208;28;20040;-52
2023/10/28 19:34:47;;;;;;;13.40;7.38;;;16.00;99.90;;;;;;5033844;28;20025;-51
2023/10/28 19:37:13;;;;;;;16.30;7.47;;;16.00;99.90;;;;;;5033948;28;20112;-51
2023/10/28 19:39:39;;;;;;;13.98;8.05;;;15.80;99.90;;;;;;5033595;28;20040;-51
2023/10/28 19:42:05;;;;;;;15.07;7.50;;;15.90;99.90;;;;;;4998050;28;20045;-52
2023/10/28 19:44:31;;;;;;;11.38;6.63;;;16.10;99.90;;;;;;5030771;28;20087;-52
2023/10/28 19:46:57;;;;;;;13.30;7.55;;;15.70;99.90;;;;;;5031235;28;20479;-52
2023/10/28 19:49:22;;;;;;;16.45;8.18;;;15.60;99.90;;;;;;5030701;28;20045;-51
2023/10/28 19:51:48;;;;;;;11.40;7.07;;;15.80;99.90;;;;;;5014324;28;20033;-52
2023/10/28 19:54:14;;;;;;;11.85;7.68;;;16.00;99.90;;;;;;5030929;28;20048;-52
2023/10/28 19:56:41;;;;;;;13.43;7.75;;;;;;;;;;5028054;28;20035;-51
2023/10/28 19:59:08;;;;;;;16.77;8.68;;;;;;;;;;5030957;28;20037;-51
2023/10/28 20:01:35;;;;;;;17.05;7.60;;;;;;;;;;5030739;28;20040;-52
2023/10/28 20:04:01;;;;;;;14.45;7.72;;;;;;;;;;5030695;28;20025;-52
2023/10/28 20:06:30;;;;;;;13.40;7.45;;;;;;;;;;5030429;28;20095;-52
2023/10/28 20:08:56;;;;;;;15.98;8.07;;;;;;;;;;5029846;28;20403;-51
2023/10/28 20:11:22;;;;;;;15.10;7.97;;;;;;;;;;5030481;28;20048;-52
2023/10/28 20:13:50;;;;;;;21.60;9.70;;;16.20;99.90;;;;;;5014002;28;20037;-52
2023/10/28 20:16:18;;;;;;;13.65;7.60;;;16.30;99.90;;;;;;4997179;28;20053;-51
2023/10/28 20:18:46;;;;;;;17.40;10.43;;;16.40;99.90;;;;;;5033797;28;20491;-51
2023/10/28 20:21:12;;;;;;;12.68;7.93;;;16.50;99.90;;;;;;5050369;28;20114;-50
2023/10/28 20:23:38;;;;;;;12.07;7.13;;;16.40;99.90;;;;;;5050097;28;20021;-53
2023/10/28 20:26:05;;;;;;;10.57;6.82;;;16.40;99.90;;;;;;5050206;28;20102;-52
2023/10/28 20:28:31;;;;;;;16.10;7.18;;;16.40;99.90;;;;;;5050263;28;20040;-52
2023/10/28 20:31:02;;;;;;;13.45;6.53;;;16.40;99.90;;;;;;5033373;28;20033;-51
2023/10/28 20:33:30;;;;;;;11.45;6.30;;;16.40;99.90;;;;;;5050221;28;20400;-52
2023/10/28 20:35:55;;;;;;;10.88;6.15;;;16.40;99.90;;;;;;5050189;28;20083;-52
2023/10/28 20:38:22;;;;;;;12.20;6.88;;;16.40;99.90;;;;;;5034588;28;20464;-52
2023/10/28 20:40:49;;;;;;;10.13;6.10;;;16.40;99.90;;;;;;5032505;28;20036;-52
2023/10/28 20:43:15;;;;;;;11.25;5.75;;;16.50;99.90;;;;;;5032620;28;20033;-52
2023/10/28 20:45:42;;;;;;;10.85;4.78;;;16.50;99.90;;;;;;5031557;28;20565;-51
2023/10/28 20:48:07;;;;;;;11.52;4.95;;;16.60;99.90;;;;;;5032390;28;20041;-52
2023/10/28 20:50:33;;;;;;;15.57;5.40;;;16.50;99.90;;;;;;5032446;28;20045;-52
2023/10/28 20:52:59;;;;;;;10.07;4.82;;;16.40;99.90;;;;;;5032386;28;20036;-52
2023/10/28 20:55:26;;;;;;;8.25;4.65;;;16.40;99.90;;;;;;5032272;28;20427;-51
2023/10/28 20:57:52;;;;;;;7.20;3.95;;;16.40;99.90;;;;;;5032193;28;20030;-52
2023/10/28 21:00:19;;;;;;;7.72;4.85;;;16.40;99.90;;;;;;5032346;28;20044;-52
2023/10/28 21:02:47;;;;;;;8.60;4.03;;;16.40;99.90;;;;;;5032325;28;20039;-51
2023/10/28 21:05:12;;;;;;;8.88;4.60;;;16.40;99.90;;;;;;5030003;28;20045;-52
2023/10/28 21:07:38;;;;;;;6.88;3.97;;;16.50;99.90;;;;;;5032096;28;20391;-52
2023/10/28 21:10:06;;;;;;;7.47;3.70;;;16.50;99.90;;;;;;5030000;28;20041;-51
2023/10/28 21:12:34;;;;;;;7.93;3.85;;;16.50;99.90;;;;;;5046579;28;20477;-51
2023/10/28 21:15:00;;;;;;;10.07;4.28;;;16.50;99.90;;;;;;5029567;28;20054;-52
2023/10/28 21:17:26;;;;;;;8.38;3.88;;;16.50;99.90;;;;;;5029629;28;20141;-52
2023/10/28 21:19:52;;;;;;;11.57;4.30;;;16.40;99.90;;;;;;5029421;28;20550;-51
2023/10/28 21:22:17;;;;;;;9.52;3.60;;;16.50;99.90;;;;;;5029576;28;20040;-52
2023/10/28 21:24:43;;;;;;;11.48;3.92;;;16.60;99.90;;;;;;4996275;28;20045;-51
2023/10/28 21:27:09;;;;;;;7.18;3.33;;;16.60;99.90;;;;;;5029626;28;20044;-51
2023/10/28 21:29:35;;;;;;;9.48;3.92;;;16.40;99.90;;;;;;5029285;28;20117;-52
2023/10/28 21:32:02;;;;;;;9.70;3.70;;;16.30;99.90;;;;;;5012980;28;20044;-51
2023/10/28 21:34:29;;;;;;;11.02;4.43;;;16.30;99.90;;;;;;5029410;28;20032;-51
2023/10/28 21:36:56;;;;;;;7.82;3.72;;;16.30;99.90;;;;;;5044860;28;20040;-52
2023/10/28 21:39:22;;;;;;;8.02;4.15;;;16.40;99.90;;;;;;5038911;28;20025;-51
2023/10/28 21:41:48;;;;;;;8.65;4.40;;;16.40;99.90;;;;;;5036453;28;20459;-52
2023/10/28 21:44:14;;;;;;;10.75;5.05;;;16.50;99.90;;;;;;5034698;28;20037;-52
2023/10/28 21:46:40;;;;;;;10.43;4.78;;;16.60;99.90;;;;;;5037628;28;20420;-52
2023/10/28 21:49:06;;;;;;;16.17;6.22;;;16.50;99.90;;;;;;5039536;28;20021;-52
2023/10/28 21:51:32;;;;;;;14.93;5.72;;;16.60;99.90;;;;;;5046344;28;20461;-51
2023/10/28 21:53:58;;;;;;;17.00;5.30;;;16.70;99.90;;;;;;5037424;28;20029;-52
2023/10/28 21:56:24;;;;;;;12.57;5.93;;;16.60;99.90;;;;;;5035601;28;20449;-52
2023/10/28 21:58:51;;;;;;;10.80;5.63;;;16.70;99.90;;;;;;5037872;28;20051;-51
2023/10/28 22:01:19;;;;;;;10.35;5.70;;;16.70;99.90;;;;;;5043049;28;20021;-51
2023/10/28 22:03:45;;;;;;;14.55;5.75;;;16.70;99.90;;;;;;5042876;28;20026;-51
2023/10/28 22:06:11;;;;;;;13.10;5.85;;;16.80;99.90;;;;;;5037856;28;20034;-52
2023/10/28 22:08:38;;;;;;;10.63;5.32;;;16.70;99.90;;;;;;5037664;28;20109;-53
2023/10/28 22:11:04;;;;;;;12.52;5.18;;;16.70;99.90;;;;;;5041967;28;20060;-52
2023/10/28 22:13:30;;;;;;;9.63;4.68;;;16.70;99.90;;;;;;5040037;28;20072;-51
2023/10/28 22:15:58;;;;;;;10.88;5.32;;;16.60;99.90;;;;;;5040471;28;20029;-51
2023/10/28 22:18:24;;;;;;;10.55;4.82;;;16.50;99.90;;;;;;5041652;28;20095;-52
2023/10/28 22:20:50;;;;;;;11.38;5.38;;;16.40;99.90;;;;;;5039817;28;20026;-52
2023/10/28 22:23:16;;;;;;;9.15;5.75;;;16.30;99.90;;;;;;5037020;28;20064;-51
2023/10/28 22:25:42;;;;;;;9.52;5.47;;;16.30;99.90;;;;;;5038996;28;20084;-50
2023/10/28 22:28:08;;;;;;;9.55;5.30;;;16.10;99.90;;;;;;5043989;28;20050;-52